Time;durP1;ratioP1;P1;durP2;ratioP2;P2;SDS_P1;SDS_P2;PMS_P1;PMS_P2;Temp;Humidity;BMP_temperature;BMP_pressure;BME280_temperature;BME280_humidity;BME280_pressure;Samples;Min_cycle;Max_cycle;Signal;HPM_P1;HPM_P2
2023/03/21 00:02:40;;;;;;;3.47;1.10;;;;;;;16.81;56.88;96843.00;10391898;28;20029;-33
2023/03/21 00:07:40;;;;;;;3.90;1.17;;;;;;;16.75;57.04;96828.63;10392467;28;20068;-33
2023/03/21 00:12:41;;;;;;;3.50;1.10;;;;;;;16.80;56.84;96839.63;10384314;28;20033;-33
2023/03/21 00:17:43;;;;;;;3.92;0.93;;;;;;;16.87;57.18;96832.94;10380435;28;20049;-33
2023/03/21 00:22:44;;;;;;;2.22;0.85;;;;;;;16.88;57.06;96839.69;10391988;28;20044;-34
2023/03/21 00:27:44;;;;;;;1.43;0.80;;;;;;;16.87;56.95;96843.03;10390423;28;20842;-35
2023/03/21 00:32:47;;;;;;;1.67;0.63;;;;;;;16.82;56.12;96837.94;10408406;28;20111;-33
2023/03/21 00:37:48;;;;;;;2.33;0.85;;;;;;;16.81;57.01;96830.38;10376006;28;20040;-33
2023/03/21 00:42:49;;;;;;;2.70;1.17;;;;;;;16.82;57.00;96827.84;10376974;28;20121;-34
2023/03/21 00:47:49;;;;;;;3.75;0.93;;;;;;;16.80;56.27;96826.13;10390648;28;20045;-33
2023/03/21 00:52:50;;;;;;;2.13;1.43;;;;;;;16.77;57.18;96816.84;10390594;28;20041;-37
2023/03/21 00:57:50;;;;;;;2.85;0.70;;;;;;;16.78;56.95;96822.75;10393396;28;20625;-34
2023/03/21 01:03:04;;;;;;;4.05;0.75;;;;;;;16.82;56.46;96820.25;10379273;28;20113;-34
2023/03/21 01:08:04;;;;;;;2.03;0.60;;;;;;;16.79;56.52;96815.19;10395777;28;20042;-34
2023/03/21 01:13:06;;;;;;;1.27;0.63;;;;;;;16.80;56.67;96808.41;10380491;28;20404;-34
2023/03/21 01:18:06;;;;;;;1.75;0.60;;;;;;;16.82;57.00;96804.25;10383276;28;20041;-34
2023/03/21 01:23:07;;;;;;;2.77;1.00;;;;;;;16.77;56.52;96795.78;10390393;28;20045;-33
2023/03/21 01:28:10;;;;;;;1.45;0.63;;;;;;;16.80;56.55;96800.84;10389293;28;20300;-33
2023/03/21 01:33:11;;;;;;;1.20;0.70;;;;;;;16.85;57.00;96799.22;10400620;28;20447;-33
2023/03/21 01:38:12;;;;;;;4.43;0.80;;;;;;;16.88;56.54;96800.06;10387133;28;20030;-34
2023/03/21 01:43:32;;;;;;;1.92;0.63;;;;;;;16.80;55.72;96783.13;10398396;28;20038;-34
2023/03/21 01:48:38;;;;;;;0.70;0.50;;;;;;;16.85;54.58;96789.09;10376973;28;20029;-34
2023/03/21 01:53:40;;;;;;;1.13;0.68;;;;;;;16.83;55.21;96785.72;10385137;28;20107;-34
2023/03/21 01:58:45;;;;;;;1.05;0.55;;;;;;;16.82;56.20;96789.91;10374453;28;20494;-33
2023/03/21 02:04:07;;;;;;;2.28;0.50;;;;;;;16.81;55.84;96783.16;10377006;28;20038;-35
2023/03/21 02:09:32;;;;;;;0.82;0.60;;;;;;;16.83;55.64;96775.59;10387188;28;20120;-33
2023/03/21 02:14:34;;;;;;;2.92;0.98;;;;;;;16.79;54.71;96769.66;10383388;28;20060;-33
2023/03/21 02:19:56;;;;;;;0.68;0.50;;;;;;;16.84;55.26;96772.22;10396576;28;20464;-38
2023/03/21 02:25:13;;;;;;;0.80;0.55;;;;;;;16.83;55.53;96765.50;10388184;28;20030;-33
2023/03/21 02:31:07;;;;;;;2.60;0.70;;;;;;;16.80;54.74;96755.34;10394887;28;20112;-33
2023/03/21 02:36:29;;;;;;;1.02;0.60;;;;;;;16.78;55.61;96751.94;10376756;28;20065;-34
2023/03/21 02:41:57;;;;;;;1.02;0.70;;;;;;;16.81;55.29;96762.09;10392429;28;20029;-36
2023/03/21 02:47:08;;;;;;;1.17;0.60;;;;;;;16.82;56.12;96768.84;10398588;28;20040;-34
2023/03/21 02:52:18;;;;;;;1.27;0.50;;;;;;;16.85;56.24;96763.81;10390806;28;20881;-34
2023/03/21 02:57:20;;;;;;;0.70;0.60;;;;;;;16.84;55.83;96757.06;10378537;28;20045;-33
2023/03/21 03:02:27;;;;;;;1.13;0.60;;;;;;;16.83;55.00;96747.78;10407465;28;20099;-34
2023/03/21 03:07:27;;;;;;;2.40;0.80;;;;;;;16.82;53.94;96748.63;10399932;28;20524;-34
2023/03/21 03:12:56;;;;;;;1.20;0.60;;;;;;;16.82;55.46;96741.03;10392630;28;20033;-34
2023/03/21 03:18:28;;;;;;;2.25;0.65;;;;;;;16.81;54.54;96740.19;10395396;28;20299;-33
2023/03/21 03:23:43;;;;;;;1.70;0.65;;;;;;;16.83;54.19;96740.19;10393131;28;20523;-33
2023/03/21 03:28:50;;;;;;;1.58;1.02;;;;;;;16.83;54.04;96737.66;10401230;28;20071;-34
2023/03/21 03:33:55;;;;;;;1.13;0.40;;;;;;;16.83;55.46;96742.72;10396253;28;20134;-34
2023/03/21 03:38:56;;;;;;;1.42;1.25;;;;;;;16.82;54.08;96730.94;10386834;28;20409;-33
2023/03/21 03:44:01;;;;;;;0.80;0.35;;;;;;;16.82;54.77;96738.50;10392622;28;20057;-33
2023/03/21 03:49:14;;;;;;;3.20;0.43;;;;;;;16.78;53.92;96729.19;10385830;28;20041;-34
2023/03/21 03:54:22;;;;;;;0.75;0.60;;;;;;;16.81;54.27;96731.75;10391906;28;20042;-35
2023/03/21 03:59:24;;;;;;;1.52;0.77;;;;;;;16.77;54.94;96730.03;10391000;28;20088;-33
2023/03/21 04:05:00;;;;;;;1.00;0.47;;;;;;;16.83;55.84;96735.16;10369360;28;20065;-33
2023/03/21 04:10:00;;;;;;;0.65;0.65;;;;;;;16.83;55.37;96735.16;10380195;28;20120;-33
2023/03/21 04:15:01;;;;;;;1.70;0.55;;;;;;;16.81;54.66;96731.75;10376840;28;20040;-33
2023/03/21 04:20:04;;;;;;;0.98;0.80;;;;;;;16.80;53.90;96725.84;10393375;28;20034;-33
2023/03/21 04:25:06;;;;;;;1.75;0.60;;;;;;;16.80;54.70;96725.84;10382500;28;20084;-33
2023/03/21 04:30:10;;;;;;;1.33;0.60;;;;;;;16.81;53.69;96734.28;10396531;28;20728;-32
2023/03/21 04:35:23;;;;;;;1.17;0.68;;;;;;;16.78;53.72;96726.66;10404758;28;20211;-34
2023/03/21 04:40:24;;;;;;;0.98;0.50;;;;;;;16.81;54.05;96724.19;10386040;28;20048;-33
2023/03/21 04:45:25;;;;;;;0.80;0.40;;;;;;;16.80;53.55;96730.03;10387879;28;20033;-33
2023/03/21 04:50:25;;;;;;;1.25;0.52;;;;;;;16.82;53.58;96728.41;10374819;28;20040;-33
2023/03/21 04:55:28;;;;;;;1.57;0.67;;;;;;;16.82;54.43;96715.75;10385436;28;20055;-35
2023/03/21 05:00:29;;;;;;;1.30;0.60;;;;;;;16.85;53.82;96718.28;10381353;28;20039;-32
2023/03/21 05:05:30;;;;;;;1.75;0.60;;;;;;;16.87;53.81;96714.94;10385065;28;20030;-35
2023/03/21 05:10:31;;;;;;;1.33;0.95;;;;;;;16.88;54.16;96715.78;10387695;28;20029;-33
2023/03/21 05:15:32;;;;;;;2.03;0.52;;;;;;;16.88;54.36;96715.78;10381749;28;20030;-34
2023/03/21 05:20:33;;;;;;;2.50;0.60;;;;;;;16.90;54.51;96727.59;10388242;28;20459;-33
2023/03/21 05:25:38;;;;;;;1.92;0.85;;;;;;;16.93;54.19;96719.19;10380065;28;20460;-35
2023/03/21 05:30:54;;;;;;;1.77;0.70;;;;;;;16.95;53.60;96725.09;10380165;28;20044;-33
2023/03/21 05:35:54;;;;;;;1.13;0.40;;;;;;;16.94;53.22;96720.88;10381418;28;20405;-33
2023/03/21 05:40:56;;;;;;;1.75;0.63;;;;;;;16.93;54.72;96719.19;10371028;28;20038;-33
2023/03/21 05:45:57;;;;;;;2.97;0.60;;;;;;;16.88;55.08;96714.09;10379662;28;20041;-33
2023/03/21 05:51:02;;;;;;;2.08;0.90;;;;;;;16.94;55.63;96713.28;10387992;28;20030;-33
2023/03/21 05:56:03;;;;;;;3.72;0.93;;;;;;;16.93;55.94;96706.53;10383028;28;20117;-33
2023/03/21 06:01:19;;;;;;;3.27;0.90;;;;;;;16.93;56.09;96724.25;10390174;28;20029;-34
2023/03/21 06:06:27;;;;;;;1.13;0.60;;;;;;;16.93;54.38;96716.66;10392130;28;20021;-33
2023/03/21 06:11:35;;;;;;;2.50;0.90;;;;;;;16.94;57.18;96719.22;10394694;28;20573;-32
2023/03/21 06:16:53;;;;;;;2.40;0.85;;;;;;;16.94;57.42;96715.81;10394176;28;20120;-33
2023/03/21 06:21:54;;;;;;;3.38;1.15;;;;;;;16.94;57.42;96708.22;10399108;28;20061;-33
2023/03/21 06:26:55;;;;;;;4.80;1.00;;;;;;;16.94;58.17;96708.22;10396056;28;20120;-34
2023/03/21 06:31:58;;;;;;;2.13;0.98;;;;;;;16.91;58.60;96698.94;10407835;28;20033;-33
2023/03/21 06:36:58;;;;;;;5.95;1.15;;;;;;;16.92;58.92;96699.81;10400028;28;20418;-33
2023/03/21 06:42:04;;;;;;;4.57;1.05;;;;;;;16.95;58.39;96700.66;10391621;28;20033;-34
2023/03/21 06:47:05;;;;;;;2.33;0.60;;;;;;;16.95;55.11;96708.25;10385128;28;20045;-36
2023/03/21 06:52:06;;;;;;;3.13;0.90;;;;;;;16.95;57.76;96695.59;10394080;28;20567;-33
2023/03/21 06:57:07;;;;;;;3.38;0.80;;;;;;;16.99;56.84;96691.41;10372984;28;20515;-33
2023/03/21 07:02:10;;;;;;;3.63;0.70;;;;;;;16.98;57.06;96690.56;10391051;28;20092;-33
2023/03/21 07:07:16;;;;;;;11.35;1.48;;;;;;;16.98;56.99;96690.56;10396410;28;20025;-34
2023/03/21 07:12:16;;;;;;;4.50;0.98;;;;;;;16.94;54.88;96688.88;10388779;28;20034;-33
2023/03/21 07:17:39;;;;;;;4.10;1.30;;;;;;;16.97;57.31;96680.41;10387949;28;20044;-36
2023/03/21 07:22:40;;;;;;;5.50;1.87;;;;;;;16.97;57.31;96677.88;10389202;28;20037;-33
2023/03/21 07:27:41;;;;;;;3.33;1.30;;;;;;;16.94;57.60;96662.72;10400751;28;20289;-33
2023/03/21 07:32:41;;;;;;;6.30;1.17;;;;;;;16.96;57.57;96672.00;10393116;28;20037;-34
2023/03/21 07:37:42;;;;;;;3.78;0.85;;;;;;;16.97;57.45;96670.31;10383617;28;20026;-33
2023/03/21 07:42:42;;;;;;;4.22;1.35;;;;;;;16.96;58.08;96663.56;10387599;28;20060;-34
2023/03/21 07:47:46;;;;;;;4.72;0.80;;;;;;;16.96;58.11;96666.09;10388845;28;20025;-34
2023/03/21 07:52:49;;;;;;;5.53;1.08;;;;;;;17.04;56.47;96664.44;10395447;28;20033;-33
2023/03/21 07:57:50;;;;;;;2.33;0.75;;;;;;;17.00;57.71;96666.09;10395620;28;20056;-35
2023/03/21 08:02:53;;;;;;;5.50;1.00;;;;;;;17.01;57.60;96664.44;10389159;28;20060;-33
2023/03/21 08:07:54;;;;;;;5.97;0.70;;;;;;;17.01;58.47;96664.44;10392529;28;20042;-32
2023/03/21 08:12:54;;;;;;;5.82;1.38;;;;;;;17.02;57.99;96673.72;10387030;28;20569;-35
2023/03/21 08:17:55;;;;;;;4.15;1.05;;;;;;;17.07;56.79;96664.47;10374456;28;20478;-33
2023/03/21 08:22:55;;;;;;;4.85;0.90;;;;;;;17.07;56.28;96662.78;10389290;28;20451;-33
2023/03/21 08:27:55;;;;;;;5.63;1.15;;;;;;;17.12;57.61;96667.84;10385301;28;20064;-33
2023/03/21 08:32:59;;;;;;;6.33;0.80;;;;;;;17.09;58.22;96680.50;10388911;28;20040;-34
2023/03/21 08:38:02;;;;;;;9.73;0.77;;;;;;;17.06;58.44;96680.50;10385552;28;20030;-34
2023/03/21 08:43:02;;;;;;;5.10;1.40;;;;;;;17.09;58.38;96680.50;10393885;28;20051;-33
2023/03/21 08:48:03;;;;;;;10.83;1.50;;;;;;;17.07;58.44;96682.19;10384706;28;20090;-33
2023/03/21 08:53:03;;;;;;;6.57;1.50;;;;;;;17.07;58.53;96687.25;10390894;28;20319;-33
2023/03/21 08:58:06;;;;;;;4.70;0.73;;;;;;;17.12;56.14;96677.97;10388407;28;20048;-33
2023/03/21 09:03:06;;;;;;;6.47;1.27;;;;;;;17.16;56.88;96683.06;10389342;28;20703;-34
2023/03/21 09:08:06;;;;;;;3.27;0.80;;;;;;;17.14;58.19;96683.91;10391819;28;20037;-33
2023/03/21 09:13:07;;;;;;;4.80;1.00;;;;;;;17.14;57.94;96676.31;10389570;28;20048;-34
2023/03/21 09:18:14;;;;;;;2.37;1.00;;;;;;;17.13;58.17;96685.56;10395240;28;20779;-33
2023/03/21 09:23:15;;;;;;;24.70;1.42;;;;;;;17.16;57.73;96689.81;10382946;28;20036;-33
2023/03/21 09:28:16;;;;;;;8.70;2.08;;;;;;;17.13;56.10;96679.66;10388488;28;20100;-36
2023/03/21 09:33:18;;;;;;;10.88;1.40;;;;;;;17.18;55.00;96683.06;10390180;28;20053;-33
2023/03/21 09:38:18;;;;;;;4.78;1.02;;;;;;;17.18;56.65;96672.94;10395650;28;20037;-34
2023/03/21 09:43:42;;;;;;;7.13;1.08;;;;;;;17.16;57.52;96672.09;10405206;28;20486;-35
2023/03/21 09:48:56;;;;;;;5.47;1.23;;;;;;;17.13;57.16;96667.88;10394035;28;20467;-33
2023/03/21 09:54:01;;;;;;;4.70;1.15;;;;;;;17.17;54.37;96677.16;10394085;28;20104;-34
2023/03/21 09:59:06;;;;;;;3.95;0.82;;;;;;;17.18;57.15;96667.88;10381920;28;20022;-34
2023/03/21 10:04:12;;;;;;;4.95;1.15;;;;;;;17.23;53.70;96671.28;10388221;28;20057;-33
2023/03/21 10:09:23;;;;;;;16.55;2.03;;;;;;;17.23;52.73;96668.75;10382844;28;20616;-33
2023/03/21 10:14:34;;;;;;;22.75;2.47;;;;;;;17.28;54.59;96675.53;10392594;28;20049;-33
2023/03/21 10:19:34;;;;;;;29.10;4.38;;;;;;;17.29;55.47;96667.09;10388445;28;20030;-35
2023/03/21 10:24:35;;;;;;;23.50;4.13;;;;;;;17.21;55.44;96655.25;10394606;28;20026;-36
2023/03/21 10:29:43;;;;;;;18.95;2.63;;;;;;;17.24;57.48;96663.69;10383194;28;20033;-34
2023/03/21 10:34:52;;;;;;;12.13;1.55;;;;;;;17.22;57.70;96659.47;10397557;28;20055;-34
2023/03/21 10:39:54;;;;;;;11.50;2.50;;;;;;;17.21;57.29;96656.09;10385290;28;20037;-36
2023/03/21 10:44:56;;;;;;;10.25;1.35;;;;;;;17.21;56.32;96650.19;10394431;28;20103;-34
2023/03/21 10:50:11;;;;;;;11.40;2.03;;;;;;;17.19;56.89;96645.13;10392042;28;20029;-34
2023/03/21 10:55:30;;;;;;;8.55;2.42;;;;;;;17.15;56.90;96627.41;10383737;28;20041;-33
2023/03/21 11:00:35;;;;;;;10.25;2.30;;;;;;;17.18;56.96;96640.06;10382696;28;20129;-33
2023/03/21 11:05:39;;;;;;;9.98;2.33;;;;;;;17.21;56.08;96642.59;10379610;28;20479;-33
2023/03/21 11:10:50;;;;;;;25.67;4.80;;;;;;;17.24;54.39;96632.50;10383782;28;20391;-33
2023/03/21 11:15:54;;;;;;;24.92;3.78;;;;;;;17.28;54.25;96624.06;10388906;28;20124;-34
2023/03/21 11:21:03;;;;;;;20.60;2.90;;;;;;;17.28;53.74;96624.06;10395867;28;20110;-34
2023/03/21 11:26:09;;;;;;;14.93;2.75;;;;;;;17.36;55.94;96624.97;10385585;28;20025;-35
2023/03/21 11:31:10;;;;;;;11.10;2.73;;;;;;;17.40;54.98;96619.09;10395917;28;20100;-33
2023/03/21 11:36:19;;;;;;;11.50;2.08;;;;;;;17.36;53.33;96607.25;10387202;28;20562;-34
2023/03/21 11:41:40;;;;;;;9.65;1.70;;;;;;;17.34;53.19;96606.38;10383586;28;20183;-34
2023/03/21 11:46:41;;;;;;;5.63;1.35;;;;;;;17.31;53.00;96589.50;10385767;28;20034;-33
2023/03/21 11:52:05;;;;;;;6.63;2.07;;;;;;;17.31;53.23;96588.69;10391814;28;20044;-33
2023/03/21 11:57:24;;;;;;;8.07;1.88;;;;;;;17.30;53.08;96579.38;10390830;28;20387;-33
2023/03/21 12:02:30;;;;;;;6.95;1.55;;;;;;;17.25;52.87;96568.41;10384891;28;20038;-34
2023/03/21 12:07:40;;;;;;;5.28;1.60;;;;;;;17.31;52.96;96573.50;10394399;28;20527;-34
2023/03/21 12:13:19;;;;;;;4.68;1.33;;;;;;;17.29;53.08;96573.47;10389635;28;20038;-33
2023/03/21 12:18:38;;;;;;;5.43;2.05;;;;;;;17.31;52.88;96565.91;10372519;28;20054;-36
2023/03/21 12:24:03;;;;;;;5.60;1.92;;;;;;;17.31;53.05;96563.38;10380691;28;20040;-33
2023/03/21 12:29:17;;;;;;;4.82;1.60;;;;;;;17.29;52.96;96557.44;10388256;28;20041;-34
2023/03/21 12:34:23;;;;;;;4.45;1.45;;;;;;;17.30;53.24;96556.59;10374396;28;20049;-33
2023/03/21 12:39:30;;;;;;;1.87;1.27;;;;;;;17.38;56.19;96545.69;10386942;28;20056;-34
2023/03/21 12:44:40;;;;;;;5.38;1.77;;;;;;;17.41;56.31;96549.91;10384488;28;20058;-34
2023/03/21 12:49:59;;;;;;;10.95;5.07;;;;;;;17.40;52.87;96550.78;10377232;28;20119;-34
2023/03/21 12:55:12;;;;;;;7.28;2.42;;;;;;;17.38;53.38;96539.78;10391107;28;20037;-34
2023/03/21 13:00:22;;;;;;;6.82;2.85;;;;;;;17.38;53.42;96540.63;10394655;28;20033;-34
2023/03/21 13:05:43;;;;;;;6.88;2.20;;;;;;;17.36;53.23;96531.34;10390428;28;20033;-33
2023/03/21 13:10:44;;;;;;;5.45;1.70;;;;;;;17.36;53.63;96528.81;10379325;28;20033;-32
2023/03/21 13:15:58;;;;;;;2.30;1.30;;;;;;;17.35;53.30;96525.44;10382046;28;20037;-33
2023/03/21 13:21:08;;;;;;;6.53;1.55;;;;;;;17.34;53.02;96518.66;10394642;28;20061;-34
2023/03/21 13:26:10;;;;;;;2.63;1.40;;;;;;;17.31;53.12;96511.06;10383440;28;20026;-32
2023/03/21 13:31:18;;;;;;;2.28;1.20;;;;;;;17.33;54.21;96503.50;10390207;28;20045;-33
2023/03/21 13:36:27;;;;;;;2.63;1.15;;;;;;;17.28;56.65;96507.69;10391010;28;20045;-33
2023/03/21 13:41:35;;;;;;;3.33;1.48;;;;;;;17.25;54.69;96502.63;10378097;28;20738;-32
2023/03/21 13:46:44;;;;;;;1.83;1.00;;;;;;;17.24;55.46;96491.66;10387955;28;20164;-33
2023/03/21 13:51:49;;;;;;;8.48;1.65;;;;;;;17.28;56.99;96492.50;10390971;28;20149;-34
2023/03/21 13:56:53;;;;;;;5.87;1.10;;;;;;;17.31;56.55;96477.34;10385078;28;20045;-33
2023/03/21 14:02:02;;;;;;;13.82;2.05;;;;;;;17.29;55.61;96484.06;10388712;28;20045;-34
2023/03/21 14:07:10;;;;;;;6.68;1.35;;;;;;;17.31;55.54;96492.53;10386817;28;20037;-34
2023/03/21 14:12:17;;;;;;;4.10;1.40;;;;;;;17.29;56.39;96495.03;10390377;28;20040;-34
2023/03/21 14:17:23;;;;;;;6.95;1.58;;;;;;;17.27;56.20;96488.28;10388408;28;20115;-33
2023/03/21 14:22:24;;;;;;;7.07;1.40;;;;;;;17.27;56.46;96490.81;10393279;28;20045;-33
2023/03/21 14:27:30;;;;;;;5.23;1.30;;;;;;;17.24;54.48;96485.78;10396127;28;20032;-34
2023/03/21 14:32:31;;;;;;;4.22;1.42;;;;;;;17.27;57.07;96493.34;10402882;28;20030;-33
2023/03/21 14:37:37;;;;;;;8.80;2.20;;;;;;;17.27;57.39;96490.81;10389467;28;20049;-34
2023/03/21 14:42:37;;;;;;;4.30;1.23;;;;;;;17.26;57.43;96481.53;10389726;28;20548;-35
2023/03/21 14:47:38;;;;;;;4.17;1.53;;;;;;;17.28;57.12;96473.13;10393568;28;20040;-34
2023/03/21 14:52:40;;;;;;;5.63;1.35;;;;;;;17.28;57.94;96474.78;10393844;28;20076;-33
2023/03/21 14:57:40;;;;;;;3.75;1.30;;;;;;;17.29;58.41;96468.88;10397879;28;20049;-33
2023/03/21 15:02:44;;;;;;;3.75;0.85;;;;;;;17.30;56.29;96471.44;10388257;28;20592;-34
2023/03/21 15:07:55;;;;;;;5.07;1.42;;;;;;;17.31;58.93;96469.75;10392513;28;20032;-32
2023/03/21 15:12:59;;;;;;;3.28;0.90;;;;;;;17.31;57.34;96462.16;10396791;28;20112;-33
2023/03/21 15:18:05;;;;;;;3.00;1.08;;;;;;;17.29;55.70;96458.78;10385232;28;20455;-33
2023/03/21 15:23:14;;;;;;;5.28;0.80;;;;;;;17.28;56.42;96460.47;10382367;28;20037;-34
2023/03/21 15:28:15;;;;;;;6.25;1.35;;;;;;;17.27;56.81;96453.72;10389148;28;20038;-34
2023/03/21 15:33:17;;;;;;;6.65;0.95;;;;;;;17.28;57.43;96452.88;10384592;28;20175;-33
2023/03/21 15:38:22;;;;;;;2.17;0.80;;;;;;;17.25;58.08;96452.84;10385859;28;20393;-33
2023/03/21 15:43:23;;;;;;;3.55;1.05;;;;;;;17.26;57.92;96453.72;10384129;28;20054;-33
2023/03/21 15:48:28;;;;;;;2.28;1.00;;;;;;;17.26;56.80;96454.53;10385610;28;20037;-35
2023/03/21 15:53:32;;;;;;;3.83;1.02;;;;;;;17.27;56.71;96450.34;10383150;28;20718;-34
2023/03/21 15:58:43;;;;;;;2.45;0.90;;;;;;;17.27;56.26;96460.47;10382129;28;20084;-34
2023/03/21 16:03:46;;;;;;;5.70;1.17;;;;;;;17.26;55.65;96453.72;10386516;28;20034;-34
2023/03/21 16:08:51;;;;;;;3.53;0.95;;;;;;;17.27;55.67;96457.94;10386817;28;20297;-33
2023/03/21 16:13:53;;;;;;;2.17;1.08;;;;;;;17.29;57.69;96449.50;10392083;28;20040;-33
2023/03/21 16:18:55;;;;;;;4.07;1.48;;;;;;;17.35;58.76;96456.25;10393683;28;20108;-33
2023/03/21 16:23:57;;;;;;;2.95;0.85;;;;;;;17.38;57.48;96463.84;10384012;28;20508;-34
2023/03/21 16:28:58;;;;;;;6.67;1.03;;;;;;;17.35;58.29;96459.63;10397081;28;20047;-35
2023/03/21 16:33:58;;;;;;;2.25;0.90;;;;;;;17.32;55.97;96468.91;10384559;28;20334;-34
2023/03/21 16:38:59;;;;;;;3.47;1.37;;;;;;;17.31;58.28;96473.13;10385043;28;20071;-34
2023/03/21 16:44:00;;;;;;;3.07;0.90;;;;;;;17.31;58.81;96478.16;10392248;28;20276;-34
2023/03/21 16:49:01;;;;;;;4.97;1.40;;;;;;;17.30;59.02;96478.16;10382261;28;20124;-34
2023/03/21 16:54:02;;;;;;;2.88;1.10;;;;;;;17.30;59.29;96483.22;10389011;28;20037;-34
2023/03/21 16:59:04;;;;;;;6.57;1.10;;;;;;;17.21;58.09;96478.16;10383486;28;20038;-34
2023/03/21 17:04:05;;;;;;;8.18;1.75;;;;;;;17.23;55.33;96484.09;10389203;28;20049;-34
2023/03/21 17:09:05;;;;;;;6.70;1.27;;;;;;;17.28;57.52;96489.97;10388438;28;20389;-33
2023/03/21 17:14:11;;;;;;;4.32;0.88;;;;;;;17.32;52.99;96486.63;10380681;28;20563;-33
2023/03/21 17:19:12;;;;;;;3.13;0.95;;;;;;;17.32;52.34;96482.38;10381018;28;20057;-34
2023/03/21 17:24:13;;;;;;;2.33;0.80;;;;;;;17.34;52.36;96490.00;10391410;28;20021;-34
2023/03/21 17:29:14;;;;;;;3.47;1.00;;;;;;;17.44;54.92;96496.78;10391212;28;20040;-33
2023/03/21 17:34:15;;;;;;;4.32;1.38;;;;;;;17.47;56.21;96494.22;10389879;28;20788;-34
2023/03/21 17:39:21;;;;;;;4.15;1.08;;;;;;;17.41;52.35;96494.25;10389045;28;20044;-33
2023/03/21 17:44:21;;;;;;;3.03;0.80;;;;;;;17.31;51.97;96492.53;10391254;28;20101;-34
2023/03/21 17:49:22;;;;;;;1.57;0.57;;;;;;;17.31;51.23;96497.59;10397269;28;20041;-34
2023/03/21 17:54:22;;;;;;;1.65;1.00;;;;;;;17.29;51.67;96499.25;10381625;28;20302;-34
2023/03/21 17:59:23;;;;;;;1.87;0.90;;;;;;;17.25;51.44;96490.81;10395482;28;20116;-35
2023/03/21 18:04:23;;;;;;;0.73;0.50;;;;;;;17.27;51.18;96493.34;10395568;28;20030;-33
2023/03/21 18:09:24;;;;;;;1.57;0.63;;;;;;;17.26;51.13;96491.66;10396310;28;20029;-34
2023/03/21 18:14:25;;;;;;;4.10;0.80;;;;;;;17.25;51.10;96500.09;10393164;28;20478;-33
2023/03/21 18:19:26;;;;;;;1.80;0.70;;;;;;;17.23;51.31;96494.22;10399059;28;20033;-34
2023/03/21 18:24:28;;;;;;;1.95;0.77;;;;;;;17.19;51.75;96487.44;10389050;28;20033;-35
2023/03/21 18:29:29;;;;;;;0.60;0.43;;;;;;;17.20;51.06;96491.66;10397278;28;20172;-34
2023/03/21 18:34:30;;;;;;;1.35;0.70;;;;;;;17.18;51.33;96489.13;10393692;28;20332;-33
2023/03/21 18:39:31;;;;;;;2.40;1.17;;;;;;;17.34;53.25;96503.47;10401206;28;20485;-33
2023/03/21 18:44:36;;;;;;;5.65;1.00;;;;;;;17.46;54.20;96492.53;10397126;28;20241;-34
2023/03/21 18:49:37;;;;;;;3.15;1.00;;;;;;;17.46;53.77;96490.00;10392824;28;20034;-36
2023/03/21 18:54:38;;;;;;;3.20;1.30;;;;;;;17.36;51.15;96496.78;10365766;28;20512;-33
2023/03/21 18:59:38;;;;;;;0.80;0.77;;;;;;;17.28;51.16;96495.88;10388776;28;20543;-33
2023/03/21 19:04:39;;;;;;;1.38;0.73;;;;;;;17.28;51.10;96497.56;10383073;28;20033;-33
2023/03/21 19:09:40;;;;;;;1.95;0.80;;;;;;;17.27;50.91;96501.78;10392146;28;20529;-34
2023/03/21 19:14:40;;;;;;;5.18;0.80;;;;;;;17.26;51.03;96494.19;10386787;28;20052;-34
2023/03/21 19:19:41;;;;;;;2.15;0.60;;;;;;;17.24;50.94;96496.72;10380126;28;20504;-34
2023/03/21 19:24:41;;;;;;;3.35;0.73;;;;;;;17.24;50.69;96479.00;10369155;28;20034;-33
2023/03/21 19:29:42;;;;;;;2.10;0.97;;;;;;;17.28;51.60;96484.91;10381603;28;20037;-36
2023/03/21 19:34:42;;;;;;;1.80;0.40;;;;;;;17.25;50.65;96470.56;10364335;28;20092;-33
2023/03/21 19:39:42;;;;;;;2.63;1.17;;;;;;;17.25;55.03;96462.16;10370978;28;20788;-33
2023/03/21 19:44:44;;;;;;;1.50;0.60;;;;;;;17.20;51.02;96473.94;10368382;28;20112;-34
2023/03/21 19:49:44;;;;;;;1.70;1.23;;;;;;;17.23;55.37;96496.72;10371828;28;20510;-34
2023/03/21 19:54:44;;;;;;;4.60;1.40;;;;;;;17.25;59.22;96497.56;10371645;28;20034;-33
2023/03/21 19:59:46;;;;;;;3.75;1.33;;;;;;;17.26;58.71;96499.25;10376818;28;20025;-34
2023/03/21 20:04:46;;;;;;;4.78;1.42;;;;;;;17.25;58.03;96500.09;10386063;28;20034;-34
2023/03/21 20:09:46;;;;;;;2.47;1.10;;;;;;;17.22;54.72;96510.19;10378504;28;20506;-33
2023/03/21 20:14:47;;;;;;;1.33;0.90;;;;;;;17.20;52.91;96514.41;10385206;28;20044;-33
2023/03/21 20:19:48;;;;;;;1.25;0.60;;;;;;;17.19;51.88;96502.63;10386735;28;20116;-34
2023/03/21 20:24:48;;;;;;;2.10;0.80;;;;;;;17.20;51.70;96499.25;10382541;28;20083;-33
2023/03/21 20:29:49;;;;;;;0.63;0.60;;;;;;;17.20;51.10;96506.81;10390685;28;20854;-33
2023/03/21 20:34:49;;;;;;;1.00;0.57;;;;;;;17.12;51.54;96505.97;10380337;28;20048;-33
2023/03/21 20:39:50;;;;;;;2.70;0.77;;;;;;;17.18;51.75;96516.97;10391516;28;20398;-33
2023/03/21 20:44:52;;;;;;;1.70;0.68;;;;;;;17.19;51.16;96523.72;10391525;28;20559;-33
2023/03/21 20:49:55;;;;;;;1.60;0.55;;;;;;;17.20;51.50;96529.59;10389999;28;20451;-33
2023/03/21 20:54:58;;;;;;;4.80;1.10;;;;;;;17.15;54.67;96526.22;10388705;28;20038;-33
2023/03/21 20:59:59;;;;;;;2.38;0.60;;;;;;;17.17;51.74;96540.53;10395091;28;20041;-33
2023/03/21 21:04:59;;;;;;;3.07;1.20;;;;;;;17.19;59.28;96543.94;10384644;28;20059;-33
2023/03/21 21:10:00;;;;;;;4.43;1.35;;;;;;;17.25;59.28;96553.22;10393297;28;20463;-35
2023/03/21 21:15:00;;;;;;;4.00;1.55;;;;;;;17.24;59.20;96551.53;10383303;28;20091;-34
2023/03/21 21:20:11;;;;;;;3.20;1.37;;;;;;;17.17;57.16;96550.66;10393186;28;20038;-34
2023/03/21 21:25:11;;;;;;;1.80;0.70;;;;;;;17.15;52.87;96556.59;10383882;28;20284;-33
2023/03/21 21:30:24;;;;;;;2.15;1.00;;;;;;;17.09;53.78;96548.97;10390719;28;20030;-33
2023/03/21 21:35:25;;;;;;;2.03;0.70;;;;;;;17.12;53.54;96554.88;10387067;28;20478;-34
2023/03/21 21:40:26;;;;;;;2.38;1.27;;;;;;;17.13;54.79;96550.66;10379283;28;20029;-34
2023/03/21 21:45:26;;;;;;;1.20;0.80;;;;;;;17.11;52.73;96560.78;10377512;28;20490;-33
2023/03/21 21:50:27;;;;;;;0.95;0.82;;;;;;;17.09;52.12;96543.91;10386385;28;20292;-34
2023/03/21 21:55:28;;;;;;;3.43;1.30;;;;;;;17.12;53.40;96556.56;10379996;28;20065;-34
2023/03/21 22:00:30;;;;;;;1.15;0.60;;;;;;;17.12;51.46;96557.41;10387773;28;20029;-34
2023/03/21 22:05:31;;;;;;;1.38;0.77;;;;;;;17.11;51.32;96540.56;10385057;28;20030;-33
2023/03/21 22:10:31;;;;;;;2.10;0.70;;;;;;;17.12;51.37;96536.31;10379789;28;20030;-34
2023/03/21 22:15:32;;;;;;;4.72;1.38;;;;;;;17.12;57.69;96527.06;10388933;28;20057;-34
2023/03/21 22:20:32;;;;;;;2.10;1.10;;;;;;;17.20;58.71;96534.66;10391999;28;20172;-33
2023/03/21 22:25:33;;;;;;;2.75;1.02;;;;;;;17.23;58.69;96530.44;10383142;28;20064;-34
2023/03/21 22:30:33;;;;;;;5.07;1.33;;;;;;;17.17;58.12;96532.13;10390376;28;20401;-33
2023/03/21 22:35:34;;;;;;;2.60;1.13;;;;;;;17.10;57.28;96517.78;10390286;28;20486;-34
2023/03/21 22:40:34;;;;;;;1.17;0.98;;;;;;;17.10;53.92;96518.63;10384533;28;20151;-35
2023/03/21 22:45:34;;;;;;;5.00;3.33;;;;;;;17.09;52.74;96511.84;10397171;28;20033;-35
2023/03/21 22:50:35;;;;;;;2.30;1.00;;;;;;;17.09;52.61;96508.50;10388226;28;20289;-34
2023/03/21 22:55:35;;;;;;;1.53;0.60;;;;;;;17.06;51.79;96505.97;10389241;28;20041;-35
2023/03/21 23:00:35;;;;;;;1.48;0.90;;;;;;;17.08;53.71;96509.34;10385533;28;20445;-33
2023/03/21 23:05:40;;;;;;;3.23;0.60;;;;;;;17.08;52.42;96514.41;10398384;28;20033;-33
2023/03/21 23:10:42;;;;;;;2.53;0.73;;;;;;;17.06;51.37;96516.09;10395371;28;20029;-34
2023/03/21 23:15:42;;;;;;;1.38;0.80;;;;;;;17.08;51.55;96517.75;10392394;28;20037;-34
2023/03/21 23:20:42;;;;;;;0.77;0.60;;;;;;;17.08;51.32;96520.28;10383133;28;20034;-33
2023/03/21 23:25:43;;;;;;;0.73;0.50;;;;;;;17.07;50.92;96522.84;10386036;28;20087;-34
2023/03/21 23:30:44;;;;;;;3.88;1.08;;;;;;;17.11;58.40;96519.47;10401528;28;20083;-33
2023/03/21 23:35:45;;;;;;;5.37;2.47;;;;;;;17.18;58.35;96537.19;10394119;28;20087;-33